sensor_id;sensor_type;location;lat;lon;timestamp;pressure;altitude;pressure_sealevel;temperature;humidity
73624;BME280;61921;53.226;-1.296;2023-07-22T00:02:23;100047.54;;;16.36;86.06
73624;BME280;61921;53.226;-1.296;2023-07-22T00:04:48;100045.31;;;16.31;86.72
73624;BME280;61921;53.226;-1.296;2023-07-22T00:07:13;100037.91;;;16.16;87.04
73624;BME280;61921;53.226;-1.296;2023-07-22T00:09:39;100032.73;;;15.98;88.40
73624;BME280;61921;53.226;-1.296;2023-07-22T00:12:05;100028.79;;;15.93;88.64
73624;BME280;61921;53.226;-1.296;2023-07-22T00:14:29;100025.71;;;15.86;89.33
73624;BME280;61921;53.226;-1.296;2023-07-22T00:16:54;100023.93;;;15.82;89.29
73624;BME280;61921;53.226;-1.296;2023-07-22T00:19:20;100025.84;;;15.62;90.37
73624;BME280;61921;53.226;-1.296;2023-07-22T00:21:45;100021.61;;;15.68;90.38
73624;BME280;61921;53.226;-1.296;2023-07-22T00:24:10;100022.56;;;15.72;90.14
73624;BME280;61921;53.226;-1.296;2023-07-22T00:26:35;100027.44;;;15.58;90.88
73624;BME280;61921;53.226;-1.296;2023-07-22T00:29:01;100020.79;;;15.62;91.06
73624;BME280;61921;53.226;-1.296;2023-07-22T00:31:26;100020.01;;;15.70;90.88
73624;BME280;61921;53.226;-1.296;2023-07-22T00:33:52;100013.02;;;15.71;90.92
73624;BME280;61921;53.226;-1.296;2023-07-22T00:36:17;100013.63;;;15.80;90.74
73624;BME280;61921;53.226;-1.296;2023-07-22T00:38:42;100013.70;;;15.87;90.75
73624;BME280;61921;53.226;-1.296;2023-07-22T00:41:08;100012.99;;;15.76;90.73
73624;BME280;61921;53.226;-1.296;2023-07-22T00:43:33;100008.05;;;15.79;90.89
73624;BME280;61921;53.226;-1.296;2023-07-22T00:45:58;100001.25;;;15.71;90.80
73624;BME280;61921;53.226;-1.296;2023-07-22T00:48:24;99996.97;;;15.69;91.20
73624;BME280;61921;53.226;-1.296;2023-07-22T00:50:49;99997.92;;;15.66;91.36
73624;BME280;61921;53.226;-1.296;2023-07-22T00:53:14;100002.89;;;15.62;91.76
73624;BME280;61921;53.226;-1.296;2023-07-22T00:55:40;100002.44;;;15.63;91.42
73624;BME280;61921;53.226;-1.296;2023-07-22T00:58:06;100003.22;;;15.65;91.60
73624;BME280;61921;53.226;-1.296;2023-07-22T01:00:31;100001.21;;;15.62;91.83
73624;BME280;61921;53.226;-1.296;2023-07-22T01:02:56;100000.75;;;15.73;91.08
73624;BME280;61921;53.226;-1.296;2023-07-22T01:05:21;99996.37;;;15.79;90.63
73624;BME280;61921;53.226;-1.296;2023-07-22T01:07:46;99993.40;;;15.77;90.74
73624;BME280;61921;53.226;-1.296;2023-07-22T01:10:14;99992.11;;;15.81;90.71
73624;BME280;61921;53.226;-1.296;2023-07-22T01:12:38;99987.35;;;15.85;90.25
73624;BME280;61921;53.226;-1.296;2023-07-22T01:15:04;99978.86;;;15.84;90.80
73624;BME280;61921;53.226;-1.296;2023-07-22T01:17:28;99973.60;;;15.87;90.50
73624;BME280;61921;53.226;-1.296;2023-07-22T01:19:53;99963.71;;;15.92;90.61
73624;BME280;61921;53.226;-1.296;2023-07-22T01:22:19;99959.56;;;15.84;90.55
73624;BME280;61921;53.226;-1.296;2023-07-22T01:24:44;99956.47;;;15.84;90.51
73624;BME280;61921;53.226;-1.296;2023-07-22T01:27:10;99956.87;;;15.82;90.33
73624;BME280;61921;53.226;-1.296;2023-07-22T01:29:35;99951.16;;;15.76;90.82
73624;BME280;61921;53.226;-1.296;2023-07-22T01:32:00;99951.35;;;15.61;90.78
73624;BME280;61921;53.226;-1.296;2023-07-22T01:34:25;99948.67;;;15.29;92.57
73624;BME280;61921;53.226;-1.296;2023-07-22T01:36:50;99946.50;;;15.36;93.00
73624;BME280;61921;53.226;-1.296;2023-07-22T01:39:16;99940.01;;;15.40;93.14
73624;BME280;61921;53.226;-1.296;2023-07-22T01:41:41;99934.77;;;15.34;92.78
73624;BME280;61921;53.226;-1.296;2023-07-22T01:44:06;99931.00;;;15.38;93.06
73624;BME280;61921;53.226;-1.296;2023-07-22T01:46:31;99929.39;;;15.31;92.93
73624;BME280;61921;53.226;-1.296;2023-07-22T01:48:57;99921.34;;;15.13;93.59
73624;BME280;61921;53.226;-1.296;2023-07-22T01:51:22;99920.15;;;15.25;94.02
73624;BME280;61921;53.226;-1.296;2023-07-22T01:53:47;99919.26;;;15.26;94.15
73624;BME280;61921;53.226;-1.296;2023-07-22T01:56:13;99915.24;;;15.23;93.78
73624;BME280;61921;53.226;-1.296;2023-07-22T01:58:38;99914.58;;;15.18;93.72
73624;BME280;61921;53.226;-1.296;2023-07-22T02:01:03;99909.49;;;15.06;94.14
73624;BME280;61921;53.226;-1.296;2023-07-22T02:03:28;99907.58;;;15.09;94.46
73624;BME280;61921;53.226;-1.296;2023-07-22T02:05:54;99902.90;;;15.15;94.60
73624;BME280;61921;53.226;-1.296;2023-07-22T02:08:19;99901.43;;;15.28;93.76
73624;BME280;61921;53.226;-1.296;2023-07-22T02:10:45;99900.91;;;15.20;93.95
73624;BME280;61921;53.226;-1.296;2023-07-22T02:13:10;99898.22;;;15.11;94.06
73624;BME280;61921;53.226;-1.296;2023-07-22T02:15:35;99894.22;;;15.14;93.90
73624;BME280;61921;53.226;-1.296;2023-07-22T02:18:00;99892.20;;;15.05;94.68
73624;BME280;61921;53.226;-1.296;2023-07-22T02:20:25;99893.07;;;15.08;94.30
73624;BME280;61921;53.226;-1.296;2023-07-22T02:22:51;99891.11;;;15.14;94.12
73624;BME280;61921;53.226;-1.296;2023-07-22T02:25:16;99888.40;;;15.21;93.96
73624;BME280;61921;53.226;-1.296;2023-07-22T02:27:42;99885.69;;;15.11;93.68
73624;BME280;61921;53.226;-1.296;2023-07-22T02:30:08;99886.13;;;15.16;93.95
73624;BME280;61921;53.226;-1.296;2023-07-22T02:32:32;99880.01;;;15.23;93.77
73624;BME280;61921;53.226;-1.296;2023-07-22T02:34:57;99879.84;;;15.28;93.19
73624;BME280;61921;53.226;-1.296;2023-07-22T02:37:23;99875.58;;;15.16;93.40
73624;BME280;61921;53.226;-1.296;2023-07-22T02:39:48;99873.02;;;15.19;93.64
73624;BME280;61921;53.226;-1.296;2023-07-22T02:42:13;99866.64;;;15.13;93.68
73624;BME280;61921;53.226;-1.296;2023-07-22T02:44:38;99862.14;;;14.93;94.14
73624;BME280;61921;53.226;-1.296;2023-07-22T02:47:04;99861.45;;;15.05;94.51
73624;BME280;61921;53.226;-1.296;2023-07-22T02:49:29;99857.84;;;15.00;94.43
73624;BME280;61921;53.226;-1.296;2023-07-22T02:51:54;99855.93;;;15.07;94.41
73624;BME280;61921;53.226;-1.296;2023-07-22T02:54:19;99853.86;;;15.04;94.40
73624;BME280;61921;53.226;-1.296;2023-07-22T02:56:45;99851.10;;;14.82;95.07
73624;BME280;61921;53.226;-1.296;2023-07-22T02:59:10;99848.75;;;14.95;95.19
73624;BME280;61921;53.226;-1.296;2023-07-22T03:01:35;99852.02;;;14.87;95.55
73624;BME280;61921;53.226;-1.296;2023-07-22T03:04:01;99854.85;;;14.84;96.16
73624;BME280;61921;53.226;-1.296;2023-07-22T03:06:26;99853.56;;;14.93;95.96
73624;BME280;61921;53.226;-1.296;2023-07-22T03:08:51;99857.85;;;15.00;95.18
73624;BME280;61921;53.226;-1.296;2023-07-22T03:11:16;99852.59;;;14.86;95.72
73624;BME280;61921;53.226;-1.296;2023-07-22T03:13:41;99846.49;;;14.85;95.94
73624;BME280;61921;53.226;-1.296;2023-07-22T03:16:08;99843.69;;;14.72;96.69
73624;BME280;61921;53.226;-1.296;2023-07-22T03:18:33;99841.85;;;14.64;97.14
73624;BME280;61921;53.226;-1.296;2023-07-22T03:20:58;99835.34;;;14.61;98.11
73624;BME280;61921;53.226;-1.296;2023-07-22T03:23:23;99833.09;;;14.64;98.26
73624;BME280;61921;53.226;-1.296;2023-07-22T03:25:48;99828.71;;;14.61;97.91
73624;BME280;61921;53.226;-1.296;2023-07-22T03:28:14;99825.32;;;14.54;98.01
73624;BME280;61921;53.226;-1.296;2023-07-22T03:30:39;99825.72;;;14.50;98.86
73624;BME280;61921;53.226;-1.296;2023-07-22T03:33:04;99826.90;;;14.61;98.68
73624;BME280;61921;53.226;-1.296;2023-07-22T03:35:30;99826.44;;;14.53;99.19
73624;BME280;61921;53.226;-1.296;2023-07-22T03:37:55;99827.13;;;14.44;100.00
73624;BME280;61921;53.226;-1.296;2023-07-22T03:40:20;99820.36;;;14.45;99.87
73624;BME280;61921;53.226;-1.296;2023-07-22T03:42:46;99822.86;;;14.46;100.00
73624;BME280;61921;53.226;-1.296;2023-07-22T03:45:11;99827.40;;;14.36;100.00
73624;BME280;61921;53.226;-1.296;2023-07-22T03:47:37;99826.36;;;14.37;100.00
73624;BME280;61921;53.226;-1.296;2023-07-22T03:50:02;99824.78;;;14.36;100.00
73624;BME280;61921;53.226;-1.296;2023-07-22T03:52:27;99815.19;;;14.44;100.00
73624;BME280;61921;53.226;-1.296;2023-07-22T03:54:52;99810.62;;;14.50;100.00
73624;BME280;61921;53.226;-1.296;2023-07-22T03:57:17;99806.48;;;14.51;100.00
73624;BME280;61921;53.226;-1.296;2023-07-22T03:59:43;99803.79;;;14.44;100.00
73624;BME280;61921;53.226;-1.296;2023-07-22T04:02:08;99800.92;;;14.50;100.00
73624;BME280;61921;53.226;-1.296;2023-07-22T04:04:33;99799.81;;;14.39;100.00
73624;BME280;61921;53.226;-1.296;2023-07-22T04:06:58;99801.18;;;14.47;100.00
73624;BME280;61921;53.226;-1.296;2023-07-22T04:09:25;99800.97;;;14.60;100.00
73624;BME280;61921;53.226;-1.296;2023-07-22T04:11:49;99799.96;;;14.46;100.00
73624;BME280;61921;53.226;-1.296;2023-07-22T04:14:14;99793.21;;;14.52;100.00
73624;BME280;61921;53.226;-1.296;2023-07-22T04:16:40;99787.22;;;14.45;100.00
73624;BME280;61921;53.226;-1.296;2023-07-22T04:19:05;99784.80;;;14.46;100.00
73624;BME280;61921;53.226;-1.296;2023-07-22T04:21:30;99786.30;;;14.49;100.00
73624;BME280;61921;53.226;-1.296;2023-07-22T04:23:56;99778.93;;;14.47;100.00
73624;BME280;61921;53.226;-1.296;2023-07-22T04:26:21;99775.16;;;14.47;100.00
73624;BME280;61921;53.226;-1.296;2023-07-22T04:28:46;99776.53;;;14.41;100.00
73624;BME280;61921;53.226;-1.296;2023-07-22T04:31:11;99777.38;;;14.51;100.00
73624;BME280;61921;53.226;-1.296;2023-07-22T04:33:36;99771.58;;;14.51;100.00
73624;BME280;61921;53.226;-1.296;2023-07-22T04:36:02;99768.34;;;14.46;100.00
73624;BME280;61921;53.226;-1.296;2023-07-22T04:38:27;99768.04;;;14.44;100.00
73624;BME280;61921;53.226;-1.296;2023-07-22T04:40:53;99767.31;;;14.43;100.00
73624;BME280;61921;53.226;-1.296;2023-07-22T04:43:18;99761.19;;;14.50;100.00
73624;BME280;61921;53.226;-1.296;2023-07-22T04:45:44;99756.39;;;14.55;100.00
73624;BME280;61921;53.226;-1.296;2023-07-22T04:48:08;99752.70;;;14.59;100.00
73624;BME280;61921;53.226;-1.296;2023-07-22T04:50:34;99756.15;;;14.66;100.00
73624;BME280;61921;53.226;-1.296;2023-07-22T04:52:59;99755.98;;;14.60;100.00
73624;BME280;61921;53.226;-1.296;2023-07-22T04:55:24;99755.03;;;14.69;100.00
73624;BME280;61921;53.226;-1.296;2023-07-22T04:57:49;99750.26;;;14.69;100.00
73624;BME280;61921;53.226;-1.296;2023-07-22T05:00:15;99751.05;;;14.80;100.00
73624;BME280;61921;53.226;-1.296;2023-07-22T05:02:40;99750.95;;;14.88;99.73
73624;BME280;61921;53.226;-1.296;2023-07-22T05:05:06;99750.74;;;14.87;99.17
73624;BME280;61921;53.226;-1.296;2023-07-22T05:07:31;99751.95;;;14.87;99.20
73624;BME280;61921;53.226;-1.296;2023-07-22T05:09:57;99749.54;;;14.84;98.83
73624;BME280;61921;53.226;-1.296;2023-07-22T05:12:22;99744.05;;;14.84;99.39
73624;BME280;61921;53.226;-1.296;2023-07-22T05:14:48;99743.21;;;15.00;98.87
73624;BME280;61921;53.226;-1.296;2023-07-22T05:17:13;99734.16;;;14.91;98.81
73624;BME280;61921;53.226;-1.296;2023-07-22T05:19:39;99729.93;;;14.93;99.21
73624;BME280;61921;53.226;-1.296;2023-07-22T05:22:04;99728.05;;;15.04;99.21
73624;BME280;61921;53.226;-1.296;2023-07-22T05:24:29;99727.95;;;14.89;99.69
73624;BME280;61921;53.226;-1.296;2023-07-22T05:26:55;99725.63;;;14.89;100.00
73624;BME280;61921;53.226;-1.296;2023-07-22T05:29:20;99720.90;;;14.91;100.00
73624;BME280;61921;53.226;-1.296;2023-07-22T05:31:45;99714.24;;;14.79;100.00
73624;BME280;61921;53.226;-1.296;2023-07-22T05:34:11;99712.47;;;14.82;100.00
73624;BME280;61921;53.226;-1.296;2023-07-22T05:36:36;99712.42;;;14.79;100.00
73624;BME280;61921;53.226;-1.296;2023-07-22T05:39:02;99718.33;;;14.70;100.00
73624;BME280;61921;53.226;-1.296;2023-07-22T05:41:27;99712.44;;;14.61;100.00
73624;BME280;61921;53.226;-1.296;2023-07-22T05:43:53;99709.06;;;14.55;100.00
73624;BME280;61921;53.226;-1.296;2023-07-22T05:46:19;99700.41;;;14.70;100.00
73624;BME280;61921;53.226;-1.296;2023-07-22T05:48:45;99699.63;;;14.70;100.00
73624;BME280;61921;53.226;-1.296;2023-07-22T05:51:10;99698.37;;;14.58;100.00
73624;BME280;61921;53.226;-1.296;2023-07-22T05:53:35;99700.02;;;14.57;100.00
73624;BME280;61921;53.226;-1.296;2023-07-22T05:56:01;99697.44;;;14.61;100.00
73624;BME280;61921;53.226;-1.296;2023-07-22T05:58:27;99691.75;;;14.63;100.00
73624;BME280;61921;53.226;-1.296;2023-07-22T06:00:54;99688.77;;;14.70;100.00
73624;BME280;61921;53.226;-1.296;2023-07-22T06:03:17;99683.90;;;14.64;100.00
73624;BME280;61921;53.226;-1.296;2023-07-22T06:05:43;99687.77;;;14.66;100.00
73624;BME280;61921;53.226;-1.296;2023-07-22T06:08:08;99691.63;;;14.73;100.00
73624;BME280;61921;53.226;-1.296;2023-07-22T06:10:33;99688.44;;;14.87;100.00
73624;BME280;61921;53.226;-1.296;2023-07-22T06:12:58;99688.76;;;14.90;100.00
73624;BME280;61921;53.226;-1.296;2023-07-22T06:15:24;99691.22;;;14.92;100.00
73624;BME280;61921;53.226;-1.296;2023-07-22T06:17:49;99687.67;;;14.86;100.00
73624;BME280;61921;53.226;-1.296;2023-07-22T06:20:14;99685.71;;;14.89;100.00
73624;BME280;61921;53.226;-1.296;2023-07-22T06:22:39;99680.02;;;14.92;100.00
73624;BME280;61921;53.226;-1.296;2023-07-22T06:25:06;99677.57;;;14.88;100.00
73624;BME280;61921;53.226;-1.296;2023-07-22T06:27:30;99677.57;;;14.93;100.00
73624;BME280;61921;53.226;-1.296;2023-07-22T06:29:55;99669.35;;;14.99;100.00
73624;BME280;61921;53.226;-1.296;2023-07-22T06:32:21;99672.35;;;15.01;100.00
73624;BME280;61921;53.226;-1.296;2023-07-22T06:34:46;99674.11;;;14.99;100.00
73624;BME280;61921;53.226;-1.296;2023-07-22T06:37:13;99677.60;;;14.99;100.00
73624;BME280;61921;53.226;-1.296;2023-07-22T06:39:37;99677.91;;;15.00;100.00
73624;BME280;61921;53.226;-1.296;2023-07-22T06:42:04;99676.29;;;14.98;100.00
73624;BME280;61921;53.226;-1.296;2023-07-22T06:44:28;99671.82;;;15.01;100.00
73624;BME280;61921;53.226;-1.296;2023-07-22T06:46:54;99670.28;;;15.18;100.00
73624;BME280;61921;53.226;-1.296;2023-07-22T06:49:20;99672.21;;;15.15;100.00
73624;BME280;61921;53.226;-1.296;2023-07-22T06:51:45;99664.91;;;15.14;100.00
73624;BME280;61921;53.226;-1.296;2023-07-22T06:54:10;99661.14;;;15.19;100.00
73624;BME280;61921;53.226;-1.296;2023-07-22T06:56:36;99661.36;;;15.19;100.00
73624;BME280;61921;53.226;-1.296;2023-07-22T06:59:02;99663.42;;;15.12;100.00
73624;BME280;61921;53.226;-1.296;2023-07-22T07:01:27;99662.19;;;15.05;100.00
73624;BME280;61921;53.226;-1.296;2023-07-22T07:03:52;99660.22;;;14.91;100.00
73624;BME280;61921;53.226;-1.296;2023-07-22T07:06:18;99660.06;;;14.89;100.00
73624;BME280;61921;53.226;-1.296;2023-07-22T07:08:43;99654.71;;;14.93;100.00
73624;BME280;61921;53.226;-1.296;2023-07-22T07:11:08;99659.58;;;14.81;100.00
73624;BME280;61921;53.226;-1.296;2023-07-22T07:13:33;99654.67;;;14.89;100.00
73624;BME280;61921;53.226;-1.296;2023-07-22T07:18:23;99649.19;;;15.00;100.00
73624;BME280;61921;53.226;-1.296;2023-07-22T07:20:48;99650.63;;;15.04;100.00
73624;BME280;61921;53.226;-1.296;2023-07-22T07:23:14;99645.55;;;15.01;100.00
73624;BME280;61921;53.226;-1.296;2023-07-22T07:25:39;99640.38;;;14.82;100.00
73624;BME280;61921;53.226;-1.296;2023-07-22T07:28:05;99644.10;;;14.97;100.00
73624;BME280;61921;53.226;-1.296;2023-07-22T07:30:31;99641.75;;;14.94;100.00
73624;BME280;61921;53.226;-1.296;2023-07-22T07:32:56;99637.13;;;14.99;100.00
73624;BME280;61921;53.226;-1.296;2023-07-22T07:35:21;99635.05;;;15.07;100.00
73624;BME280;61921;53.226;-1.296;2023-07-22T07:37:46;99638.54;;;15.05;100.00
73624;BME280;61921;53.226;-1.296;2023-07-22T07:40:13;99635.76;;;15.29;100.00
73624;BME280;61921;53.226;-1.296;2023-07-22T07:42:37;99633.18;;;15.23;100.00
73624;BME280;61921;53.226;-1.296;2023-07-22T07:45:02;99631.31;;;15.27;100.00
73624;BME280;61921;53.226;-1.296;2023-07-22T07:47:27;99629.79;;;15.15;100.00
73624;BME280;61921;53.226;-1.296;2023-07-22T07:49:52;99629.16;;;15.08;100.00
73624;BME280;61921;53.226;-1.296;2023-07-22T07:52:18;99627.83;;;15.11;100.00
73624;BME280;61921;53.226;-1.296;2023-07-22T07:54:43;99627.20;;;15.27;100.00
73624;BME280;61921;53.226;-1.296;2023-07-22T07:57:08;99624.86;;;15.31;100.00
73624;BME280;61921;53.226;-1.296;2023-07-22T07:59:34;99625.10;;;15.27;100.00
73624;BME280;61921;53.226;-1.296;2023-07-22T08:01:59;99624.87;;;15.21;100.00
73624;BME280;61921;53.226;-1.296;2023-07-22T08:04:25;99622.19;;;15.13;100.00
73624;BME280;61921;53.226;-1.296;2023-07-22T08:06:51;99624.08;;;15.09;100.00
73624;BME280;61921;53.226;-1.296;2023-07-22T08:09:16;99619.16;;;15.09;100.00
73624;BME280;61921;53.226;-1.296;2023-07-22T08:11:42;99615.96;;;15.05;100.00
73624;BME280;61921;53.226;-1.296;2023-07-22T08:14:07;99612.06;;;15.15;100.00
73624;BME280;61921;53.226;-1.296;2023-07-22T08:16:33;99612.93;;;15.05;100.00
73624;BME280;61921;53.226;-1.296;2023-07-22T08:18:58;99610.37;;;15.07;100.00
73624;BME280;61921;53.226;-1.296;2023-07-22T08:21:24;99606.02;;;15.19;100.00
73624;BME280;61921;53.226;-1.296;2023-07-22T08:23:49;99607.36;;;14.99;100.00
73624;BME280;61921;53.226;-1.296;2023-07-22T08:26:15;99613.35;;;15.11;100.00
73624;BME280;61921;53.226;-1.296;2023-07-22T08:28:40;99611.27;;;15.13;100.00
73624;BME280;61921;53.226;-1.296;2023-07-22T08:31:05;99609.60;;;15.10;100.00
73624;BME280;61921;53.226;-1.296;2023-07-22T08:33:31;99602.65;;;15.06;100.00
73624;BME280;61921;53.226;-1.296;2023-07-22T08:35:56;99595.25;;;14.85;100.00
73624;BME280;61921;53.226;-1.296;2023-07-22T08:38:21;99598.62;;;15.00;100.00
73624;BME280;61921;53.226;-1.296;2023-07-22T08:40:49;99600.17;;;15.03;100.00
73624;BME280;61921;53.226;-1.296;2023-07-22T08:43:20;99601.33;;;15.06;100.00
73624;BME280;61921;53.226;-1.296;2023-07-22T08:45:39;99593.32;;;15.05;100.00
73624;BME280;61921;53.226;-1.296;2023-07-22T08:48:04;99591.57;;;15.15;100.00
73624;BME280;61921;53.226;-1.296;2023-07-22T08:50:30;99587.59;;;15.20;100.00
73624;BME280;61921;53.226;-1.296;2023-07-22T08:52:54;99586.41;;;15.28;100.00
73624;BME280;61921;53.226;-1.296;2023-07-22T08:55:20;99586.60;;;15.40;100.00
73624;BME280;61921;53.226;-1.296;2023-07-22T08:57:45;99587.08;;;15.39;100.00
73624;BME280;61921;53.226;-1.296;2023-07-22T09:00:11;99588.97;;;15.54;100.00
73624;BME280;61921;53.226;-1.296;2023-07-22T09:02:36;99585.35;;;15.63;100.00
73624;BME280;61921;53.226;-1.296;2023-07-22T09:05:02;99579.07;;;15.69;100.00
73624;BME280;61921;53.226;-1.296;2023-07-22T09:07:26;99580.17;;;15.78;100.00
73624;BME280;61921;53.226;-1.296;2023-07-22T09:09:53;99577.19;;;15.71;100.00
73624;BME280;61921;53.226;-1.296;2023-07-22T09:12:18;99584.14;;;15.54;100.00
73624;BME280;61921;53.226;-1.296;2023-07-22T09:14:43;99579.51;;;15.46;100.00
73624;BME280;61921;53.226;-1.296;2023-07-22T09:17:08;99572.56;;;15.51;100.00
73624;BME280;61921;53.226;-1.296;2023-07-22T09:19:33;99577.48;;;15.50;100.00
73624;BME280;61921;53.226;-1.296;2023-07-22T09:21:59;99575.90;;;15.48;100.00
73624;BME280;61921;53.226;-1.296;2023-07-22T09:24:26;99578.15;;;15.49;100.00
73624;BME280;61921;53.226;-1.296;2023-07-22T09:26:50;99571.72;;;15.36;100.00
73624;BME280;61921;53.226;-1.296;2023-07-22T09:29:15;99571.28;;;15.43;100.00
73624;BME280;61921;53.226;-1.296;2023-07-22T09:31:49;99570.34;;;15.37;100.00
73624;BME280;61921;53.226;-1.296;2023-07-22T09:34:09;99571.31;;;15.54;100.00
73624;BME280;61921;53.226;-1.296;2023-07-22T09:36:30;99568.64;;;15.58;100.00
73624;BME280;61921;53.226;-1.296;2023-07-22T09:39:00;99567.66;;;15.59;100.00
73624;BME280;61921;53.226;-1.296;2023-07-22T09:41:24;99566.59;;;15.68;100.00
73624;BME280;61921;53.226;-1.296;2023-07-22T09:43:47;99563.61;;;15.63;100.00
73624;BME280;61921;53.226;-1.296;2023-07-22T09:46:13;99566.49;;;15.67;100.00
73624;BME280;61921;53.226;-1.296;2023-07-22T09:48:41;99562.80;;;15.69;100.00
73624;BME280;61921;53.226;-1.296;2023-07-22T09:51:02;99566.55;;;15.87;100.00
73624;BME280;61921;53.226;-1.296;2023-07-22T09:53:28;99567.72;;;15.97;100.00
73624;BME280;61921;53.226;-1.296;2023-07-22T09:55:53;99566.04;;;15.95;100.00
73624;BME280;61921;53.226;-1.296;2023-07-22T09:58:19;99563.45;;;16.13;100.00
73624;BME280;61921;53.226;-1.296;2023-07-22T10:00:48;99559.20;;;16.24;100.00
73624;BME280;61921;53.226;-1.296;2023-07-22T10:03:10;99554.58;;;16.27;100.00
73624;BME280;61921;53.226;-1.296;2023-07-22T10:05:37;99554.55;;;16.32;100.00
73624;BME280;61921;53.226;-1.296;2023-07-22T10:08:02;99553.15;;;16.16;100.00
73624;BME280;61921;53.226;-1.296;2023-07-22T10:10:30;99551.25;;;16.27;100.00
73624;BME280;61921;53.226;-1.296;2023-07-22T10:12:51;99552.98;;;16.45;100.00
73624;BME280;61921;53.226;-1.296;2023-07-22T10:15:16;99546.45;;;16.47;100.00
73624;BME280;61921;53.226;-1.296;2023-07-22T10:17:42;99545.80;;;16.52;100.00
73624;BME280;61921;53.226;-1.296;2023-07-22T10:20:07;99543.83;;;16.58;100.00
73624;BME280;61921;53.226;-1.296;2023-07-22T10:22:35;99537.22;;;16.36;100.00
73624;BME280;61921;53.226;-1.296;2023-07-22T10:24:57;99537.64;;;16.30;100.00
73624;BME280;61921;53.226;-1.296;2023-07-22T10:27:22;99535.10;;;16.33;100.00
73624;BME280;61921;53.226;-1.296;2023-07-22T10:29:48;99538.54;;;16.45;100.00
73624;BME280;61921;53.226;-1.296;2023-07-22T10:32:13;99536.66;;;16.61;100.00
73624;BME280;61921;53.226;-1.296;2023-07-22T10:34:38;99535.72;;;16.60;100.00
73624;BME280;61921;53.226;-1.296;2023-07-22T10:37:04;99535.39;;;16.57;100.00
73624;BME280;61921;53.226;-1.296;2023-07-22T10:39:29;99532.57;;;16.53;100.00
73624;BME280;61921;53.226;-1.296;2023-07-22T10:42:00;99531.90;;;16.49;100.00
73624;BME280;61921;53.226;-1.296;2023-07-22T10:44:20;99529.47;;;16.41;100.00
73624;BME280;61921;53.226;-1.296;2023-07-22T10:46:56;99523.47;;;16.38;100.00
73624;BME280;61921;53.226;-1.296;2023-07-22T10:49:11;99525.66;;;16.60;100.00
73624;BME280;61921;53.226;-1.296;2023-07-22T10:51:36;99524.86;;;16.68;100.00
73624;BME280;61921;53.226;-1.296;2023-07-22T10:54:00;99525.95;;;16.48;100.00
73624;BME280;61921;53.226;-1.296;2023-07-22T10:56:25;99514.23;;;16.72;100.00
73624;BME280;61921;53.226;-1.296;2023-07-22T10:58:58;99514.93;;;16.74;100.00
73624;BME280;61921;53.226;-1.296;2023-07-22T11:01:21;99512.46;;;16.65;100.00
73624;BME280;61921;53.226;-1.296;2023-07-22T11:06:07;99506.05;;;16.64;100.00
73624;BME280;61921;53.226;-1.296;2023-07-22T11:08:35;99506.08;;;16.69;100.00
73624;BME280;61921;53.226;-1.296;2023-07-22T11:10:59;99502.29;;;16.64;100.00
73624;BME280;61921;53.226;-1.296;2023-07-22T11:13:27;99504.03;;;16.79;100.00
73624;BME280;61921;53.226;-1.296;2023-07-22T11:15:47;99497.07;;;16.64;100.00
73624;BME280;61921;53.226;-1.296;2023-07-22T11:18:13;99492.37;;;16.55;100.00
73624;BME280;61921;53.226;-1.296;2023-07-22T11:20:37;99494.62;;;16.77;100.00
73624;BME280;61921;53.226;-1.296;2023-07-22T11:23:03;99492.22;;;16.63;100.00
73624;BME280;61921;53.226;-1.296;2023-07-22T11:25:29;99492.75;;;16.76;100.00
73624;BME280;61921;53.226;-1.296;2023-07-22T11:27:54;99490.13;;;17.10;100.00
73624;BME280;61921;53.226;-1.296;2023-07-22T11:30:20;99494.44;;;16.81;100.00
73624;BME280;61921;53.226;-1.296;2023-07-22T11:32:45;99494.41;;;16.74;100.00
73624;BME280;61921;53.226;-1.296;2023-07-22T11:35:10;99493.69;;;16.76;100.00
73624;BME280;61921;53.226;-1.296;2023-07-22T11:37:35;99482.24;;;16.60;100.00
73624;BME280;61921;53.226;-1.296;2023-07-22T11:40:00;99480.92;;;16.58;100.00
73624;BME280;61921;53.226;-1.296;2023-07-22T11:42:25;99479.40;;;16.76;100.00
73624;BME280;61921;53.226;-1.296;2023-07-22T11:44:51;99480.36;;;16.92;100.00
73624;BME280;61921;53.226;-1.296;2023-07-22T11:47:17;99469.80;;;16.78;100.00
73624;BME280;61921;53.226;-1.296;2023-07-22T11:49:47;99468.59;;;16.92;100.00
73624;BME280;61921;53.226;-1.296;2023-07-22T11:52:08;99469.14;;;17.03;100.00
73624;BME280;61921;53.226;-1.296;2023-07-22T11:54:33;99459.54;;;17.06;100.00
73624;BME280;61921;53.226;-1.296;2023-07-22T11:56:57;99457.50;;;17.23;100.00
73624;BME280;61921;53.226;-1.296;2023-07-22T11:59:33;99455.45;;;17.02;100.00
73624;BME280;61921;53.226;-1.296;2023-07-22T12:01:48;99445.77;;;16.95;100.00
73624;BME280;61921;53.226;-1.296;2023-07-22T12:04:14;99441.51;;;17.06;100.00
73624;BME280;61921;53.226;-1.296;2023-07-22T12:06:38;99440.67;;;16.86;100.00
73624;BME280;61921;53.226;-1.296;2023-07-22T12:09:03;99439.17;;;16.86;100.00
73624;BME280;61921;53.226;-1.296;2023-07-22T12:11:32;99437.51;;;17.13;100.00
73624;BME280;61921;53.226;-1.296;2023-07-22T12:14:06;99436.93;;;17.17;100.00
73624;BME280;61921;53.226;-1.296;2023-07-22T12:16:23;99431.51;;;17.26;100.00
73624;BME280;61921;53.226;-1.296;2023-07-22T12:18:45;99433.78;;;17.32;100.00
73624;BME280;61921;53.226;-1.296;2023-07-22T12:21:10;99433.24;;;17.33;99.32
73624;BME280;61921;53.226;-1.296;2023-07-22T12:23:36;99428.61;;;17.35;99.82
73624;BME280;61921;53.226;-1.296;2023-07-22T12:26:00;99425.81;;;17.64;98.42
73624;BME280;61921;53.226;-1.296;2023-07-22T12:28:25;99428.34;;;17.85;96.26
73624;BME280;61921;53.226;-1.296;2023-07-22T12:30:51;99425.76;;;17.88;96.83
73624;BME280;61921;53.226;-1.296;2023-07-22T12:33:16;99421.60;;;17.75;98.19
73624;BME280;61921;53.226;-1.296;2023-07-22T12:35:41;99417.96;;;17.75;99.25
73624;BME280;61921;53.226;-1.296;2023-07-22T12:38:07;99417.23;;;17.76;100.00